Tallevast, FL (34270)

5:53 PM EDT en Septiembre 19, 2014 (GMT -0400)
Sarabay Woods - Whitfield | Change Station
CLOSE
Current Station
Estación meteorológica personal
Location: Sarasota, FL
Altura: 20 ft
Estaciones meteorológicas cercanas

Alt 20 ft 27.41 °N, 82.55 °W | Updated 7 seconds ago

Overcast
Nublado
73.4 ° F
Sensación térmica 71 ° F
N
1.0
Viento Variable Viento desde ENE
Gusts 2.0 mph

Hoy
Alta -- | Baja -- ° F
--% Posibilidad de precipitaciones
Ayer
Alta -- | Baja -- ° F
Precip. -- pul
7:17 AM 7:30 PM
Creciente menguante, 16% visible
Presión 29.90 pul
Visibilidad 10.0 Millas
Nubes Nubes dispersas 2500 ft
Muy nublado 4800 ft
Nublado 6000 ft
Índice de calor 71 ° F
Punto de rocío 70 ° F
Humedad 90%
Precipitaciones 0.27 pul
Espesor de la nieve No disponible.
UV 1 de una escala de 12
Polen 2.00 de una escala de 12
Calidad del aire No disponible.
Flu Activity No disponible.
SPECI KSRQ 192119Z 08006KT 10SM SCT025 BKN048 OVC060 23/21 A2990 RMK AO2 LTG DSNT NE RAE19 P0005 T02280211

More Conditions Fewer Conditions

Presión 29.90 pul
Visibilidad 10.0 Millas
Nubes Nubes dispersas 2500 ft
Muy nublado 4800 ft
Nublado 6000 ft
Índice de calor 71 ° F
Punto de rocío 70 ° F
Humedad 90%
Precipitaciones 0.27 pul
Espesor de la nieve No disponible.
UV 1 de una escala de 12
Polen 2.00 de una escala de 12
Calidad del aire No disponible.
Flu Activity No disponible.
SPECI KSRQ 192119Z 08006KT 10SM SCT025 BKN048 OVC060 23/21 A2990 RMK AO2 LTG DSNT NE RAE19 P0005 T02280211

More Conditions Fewer Conditions

10-Day Weather Forecast

Almanac

Astronomía

Sep. 19, 2014 Salida Puesta
Hora real 7:17 AM EDT 7:30 PM EDT
Crepúsculo civil 6:53 AM EDT 7:53 PM EDT
Crepúsculo náutico 6:26 AM EDT 8:20 PM EDT
Crepúsculo astronómico 5:59 AM EDT 8:47 PM EDT
Luna 3:19 AM EDT 4:42 PM EDT
Horas de luz 12h 59m
Horas de luz
12h 12m
Tomorrow will be 1m 37s shorter.
Creciente menguante, 16% of the Moon is Illuminated
Hoy
Creciente menguante
Sep 24
Nueva
Oct 1
Cuarto creciente
Oct 8
Luna llena
Oct 15
Cuarto menguante

Extremos de hoy

Máximos del estado Bajos del estado

Community

WunderPhotos

Upload Photos

1,754,703 ¡fotos cargadas!

WunderBlogs® & News

By Dr. Jeff Masters
Director of Meteorology, Weather Underground
By Kari Strenfel
Meteorologist, Weather Underground
By Christopher C. Burt
Weather Historian, Weather Underground
September 19, 2014
September 19, 2014
September 19, 2014

Nearby

Grosos de nieve

Estación Profundido Altura
No tenemos constancia de nieve nueva.

Actividad de terremotos

Ciudad Distance Mag. Tiempo y dato
No hay informes recientes de la actividad sísmica.
Magnitud mínima muestra es 2,5.

Temperaturas de aguas costeras

Lugar Temperatura
Port Manatee, FL 84.9 ° F
St Petersburg, FL 86.0 ° F
Old Port Tampa, FL 84.0 ° F

Estaciones meteorológicas cercanas